Southern Lake Huron: Past 24 Hour Conditions

 

Toronto Pearson Int'l Airport

08:00 AM EDT 28 July 2014
This table is a summary of hourly weather conditions for the past 24 hours.
Date / Time
(EDT)
Wind(knots) Conditions Visibility(km) Pressure(kPa) Air tempC) Relative humidity(%) Dew pointC) Humidex
28 July 2014
8:00 N 13 gust 21 Light Rain 19 100.5 16 91 14 *
7:00 N 11 gust 19 Light Rain 13 100.4 17 92 15 *
6:00 NNE 12 Light Rain 6 100.4 17 91 15 *
5:00 NE 13 gust 22 Rain 10 100.3 17 90 16 *
4:00 ENE 12 gust 18 Rain 10 100.2 18 93 17 *
3:00 ENE 6 Heavy Rain 6 100.3 18 93 17 *
2:00 NE 4 Light Rain 24 100.3 18 92 17 *
1:00 NE 8 Light Rain 24 100.3 18 90 16 *
0:00 NNW 8 Heavy Rainshower 10 100.4 18 88 16 *
27 July 2014
23:00 NW 9 Thunderstorm with rainshowers 10 100.5 18 87 16 *
22:00 NNW 10 Light Rainshower 24 100.4 18 88 16 *
21:00 S 4 gust 16 Thunderstorm with light rainshowers 8 100.4 19 86 17 *
20:00 SW 7 Thunderstorm with light rainshowers 10 100.3 25 59 17 30
19:00 SW 5 Mostly Cloudy 24 100.3 27 49 15 31
18:00 WNW 8 Mostly Cloudy 24 100.3 28 44 14 31
17:00 W 9 Mostly Cloudy 24 100.3 28 45 15 32
16:00 W 13 Mostly Cloudy 24 100.4 28 47 16 33
15:00 WNW 13 gust 20 Mostly Cloudy 24 100.5 29 45 16 33
14:00 WNW 10 gust 17 Mostly Cloudy 24 100.5 28 47 16 32
13:00 SW 4 Mostly Cloudy 24 100.5 27 52 17 32
12:00 W 6 Mostly Cloudy 24 100.6 27 50 16 32
11:00 NW 7 Mostly Cloudy 24 100.6 25 56 16 30
10:00 NW 15 Partly Cloudy 24 100.6 24 58 16 29
9:00 WNW 15 gust 21 Partly Cloudy 24 100.6 23 65 16 28
8:00 WNW 13 gust 20 Mainly Sunny 24 100.6 22 71 17 27
 
Map of Great Lakes - Lake Erie and Lake Ontario marine weather areas Egbert N Huron - 45003 W Erie - 45005 S Huron - 45008 Lake Ontario - 45012 Port Stanley - 45132 Prince Edward Point - 45135 Georgian Bay - 45137 Grimsby - 45139 Port Colborne - 45142 South Georgian Bay - 45143 Lake St Clair - 45147 South Lake Huron - 45149 Lake Simcoe - 45151 Lake Nipissing - 45152 North Channel - 45154 Ajax - 45159 Sault Ste. Marie Airport Greater Sudbury Airport North Bay Airport Gore Bay-Manitoulin Airport Great Duck Island Brockville Grenadier Island Kemptville Kingston Airport Collingwood Lagoon City Muskoka Airport Parry Sound Harbour Lake Simcoe Regional Airport Wiarton Airport Goderich Sarnia Chris Hadfield Airport Tobermory Harrow AAFC Port Weller St. Catharines Airport Southeast Shoal Vineland Station Welland-Pelham Windsor Airport Burlington Lift Bridge Cobourg Hamilton Munro Int'l Airport Oshawa Municipal Airport Point Petre Toronto City Centre Airport Toronto Pearson Int'l Airport CFB Trenton Peterborough Municipal Airport Killarney Western Islands CFB Borden Cove Island Long Point Port Colborne Erieau Point Pelee Toronto Buttonville Municipal Airport
Legend: buoyBuoy land stationLand Station » US Marine Weather